Weather observations for the past three days for
Madison Municipal Airport
Metric (Imperial)
Date Time (edt) Wind (kph) Vis. (km) Weather Sky Cond. Temperature (ºC) Relative Humidity Wind Chill (°C) Heat Index (°C) Pressure Precipitation (cm)
Air Dwpt 6 hour altimeter (cm) sea level (mb) 1 hr 3 hr 6 hr
Max. Min.
10 12:35 N 9 16.09 Fair CLR 21 8 43% 76.33 0.0
10 12:15 N 9 16.09 Fair CLR 20 8 46% 76.33 0.0
10 11:55 NE 9 16.09 Fair CLR 20 7 43% 76.3 0.0
10 11:35 N 11 16.09 Fair CLR 20 8 46% 76.3 0.0
10 11:15 NE 13 16.09 Fair CLR 19 9 52% 76.28 0.0
10 10:55 N 9 16.09 Fair CLR 19 10 56% 76.28 0.0
10 10:35 NE 11 16.09 Fair CLR 18 10 60% 76.28 0.0
10 10:15 NE 11 16.09 Fair CLR 18 11 64% 76.25 0.0
10 09:55 N 11 16.09 Fair CLR 17 11 68% 76.25 0.0
10 09:35 NE 9 16.09 Partly Cloudy SCT110 17 11 68% 76.23 0.0
10 09:15 NE 9 16.09 Mostly Cloudy BKN120 17 12 73% 76.2 0.0
10 08:55 NE 6 16.09 Partly Cloudy SCT120 16 13 83% 76.2 0.0
10 08:35 N 6 16.09 Fair CLR 16 13 83% 76.15 0.0
10 08:15 Calm 16.09 Partly Cloudy SCT095 16 15 94% 76.12 0.0
10 07:55 Calm 16.09 Partly Cloudy SCT095 15 15 100% 76.1 0.0
10 07:35 Calm 16.09 Partly Cloudy SCT120 14 14 100% 76.05 0.0
10 07:15 Calm 16.09 Mostly Cloudy SCT100 BKN120 14 14 100% 76.05 0.0
10 06:55 Calm 16.09 Mostly Cloudy BKN100 14 13 94% 76.02 0.0
10 06:35 Calm 16.09 Overcast OVC100 14 13 94% 76.02 0.0
10 06:15 W 7 16.09 Overcast SCT080 BKN100 OVC120 14 12 88% 76 0.0
10 05:55 Calm 16.09 Light Rain BKN080 BKN090 OVC120 15 12 82% 75.95 0.0
10 05:35 Calm 16.09 Mostly Cloudy SCT070 BKN080 15 12 82% 75.97 0.0
10 05:15 W 13 16.09 Partly Cloudy SCT080 SCT090 15 11 77% 76 0.0
10 04:55 SW 6 16.09 Partly Cloudy SCT070 SCT090 13 13 100% 75.95 0.0
10 04:35 Calm 16.09 Fair CLR 13 13 100% 75.92 0.0
10 04:15 Calm 16.09 Fair CLR 13 13 100% 75.92 0.0
10 03:55 Calm 16.09 Fair CLR 13 12 94% 75.92 0.0
10 03:35 S 6 16.09 Fair CLR 13 12 94% 75.9 0.0
10 03:15 Calm 16.09 Partly Cloudy SCT050 13 12 94% 75.9 0.0
10 02:55 Calm 16.09 Mostly Cloudy BKN050 14 12 88% 75.9 0.0
10 02:35 Calm 16.09 Mostly Cloudy BKN050 14 12 88% 75.9 0.0
10 02:15 SW 6 16.09 Partly Cloudy SCT050 15 11 77% 75.9 0.0
10 01:55 Calm 16.09 Fair CLR 15 11 77% 75.9 0.0
10 01:35 Calm 16.09 Fair CLR 15 11 77% 75.92 0.0
10 01:15 S 6 16.09 Fair CLR 15 11 77% 75.92 0.0
10 00:55 SW 6 16.09 Fair CLR 15 11 77% 75.92 0.0
10 00:35 SW 6 16.09 Fair CLR 16 11 72% 75.92 0.0
10 00:15 SW 6 16.09 Fair CLR 16 11 72% 75.92 0.0
09 23:55 SW 6 16.09 Fair CLR 16 11 72% 75.92 0.0
09 23:35 SW 6 16.09 Fair CLR 17 11 68% 75.92 0.0
09 23:15 SW 7 16.09 Fair CLR 17 11 68% 75.92 0.0
09 22:55 SW 6 16.09 Partly Cloudy SCT070 17 10 64% 75.9 0.0
09 22:35 SW 6 16.09 Mostly Cloudy BKN070 16 11 72% 75.9 0.0
09 22:15 Calm 16.09 Fair CLR 16 11 72% 75.87 0.0
09 21:55 Calm 16.09 Fair CLR 17 12 73% 75.84 0.0
09 21:35 SW 6 16.09 Fair CLR 18 10 60% 75.82 0.0
09 21:15 SW 6 16.09 Fair CLR 18 10 60% 75.79 0.0
09 20:55 SW 6 16.09 Fair CLR 19 10 56% 75.79 0.0
09 20:35 SW 7 16.09 Fair CLR 20 10 53% 75.77 0.0
09 20:15 W 11 16.09 Fair CLR 22 9 44% 75.74 0.0
09 19:55 SW 9 16.09 Fair CLR 22 9 44% 75.69 0.0
09 19:35 SW 15 16.09 Fair CLR 23 9 41% 75.69 0.0
09 19:15 W 11 16.09 Fair CLR 23 8 38% 75.69 0.0
09 18:55 SW 15 16.09 Fair CLR 24 9 39% 25 75.69 0.0
09 18:35 SW 20 G 26 16.09 Fair CLR 24 9 39% 25 75.69 0.0
09 18:15 W 22 16.09 Fair CLR 24 10 41% 25 75.67 0.0
09 17:55 SW 15 16.09 Fair CLR 24 9 39% 25 75.69 0.0
09 17:35 SW 13 G 26 16.09 Fair CLR 24 10 41% 25 75.69 0.0
09 17:15 W 15 16.09 Fair CLR 24 9 39% 25 75.69 0.0
09 16:55 SW 13 16.09 Fair CLR 24 10 41% 25 75.69 0.0
09 16:35 S 11 16.09 Fair CLR 24 8 36% 25 75.69 0.0
09 16:15 SW 13 16.09 Fair CLR 24 11 44% 25 75.69 0.0
09 15:55 SW 15 G 26 16.09 Fair CLR 23 11 47% 75.72 0.0
09 15:35 SW 13 16.09 Fair CLR 23 12 50% 75.74 0.0
09 15:15 W 20 G 28 16.09 Fair CLR 23 12 50% 75.74 0.0
09 14:55 SW 19 16.09 Fair CLR 22 12 53% 75.77 0.0
09 14:35 SW 15 16.09 Fair CLR 22 13 57% 75.77 0.0
09 14:15 W 11 16.09 Fair CLR 22 12 53% 75.77 0.0
09 13:55 SW 11 16.09 Fair CLR 21 13 60% 75.77 0.0
09 13:35 W 9 16.09 Partly Cloudy SCT037 21 12 57% 75.77 0.0
09 13:15 W 13 16.09 Mostly Cloudy BKN037 21 13 60% 75.79 0.0
09 12:55 SW 6 16.09 Mostly Cloudy BKN037 20 12 60% 75.79 0.0
09 12:35 W 11 16.09 Mostly Cloudy BKN035 20 12 60% 75.79 0.0
09 12:15 W 15 16.09 Mostly Cloudy BKN035 20 12 60% 75.77 0.0
09 11:55 SW 17 16.09 Partly Cloudy SCT035 SCT041 20 12 60% 75.79 0.0
09 11:35 S 11 16.09 Fair CLR 18 12 68% 75.77 0.0
09 11:15 SW 13 16.09 Fair CLR 18 12 68% 75.77 0.0
09 10:55 SW 11 16.09 Fair CLR 17 13 77% 75.77 0.0
09 10:35 S 13 16.09 Fair CLR 17 13 77% 75.77 0.0
09 10:15 S 9 16.09 Fair CLR 16 14 88% 75.77 0.0
09 09:55 SE 11 16.09 Partly Cloudy SCT011 15 14 94% 75.74 0.0
09 09:35 S 13 16.09 Partly Cloudy SCT006 SCT050 15 15 100% 75.74 0.0
09 09:15 SE 11 16.09 Mostly Cloudy BKN004 BKN050 BKN080 14 14 100% 75.74 0.0
09 08:55 SE 7 16.09 Mostly Cloudy BKN004 BKN055 13 13 100% 75.74 0.0
09 08:35 SE 9 16.09 Overcast BKN004 OVC070 12 12 100% 75.74 0.0
09 08:15 E 7 16.09 Overcast OVC004 12 12 100% 75.74 0.0
09 07:55 Calm 16.09 Overcast BKN004 OVC090 12 12 100% 75.72 0.0
09 07:35 E 7 16.09 Overcast SCT003 SCT075 OVC090 12 12 100% 75.72 0.0
09 07:15 SE 11 11.27 Overcast SCT003 BKN075 OVC100 12 12 100% 75.69 0.0
09 06:55 SE 7 16.09 Overcast SCT003 OVC100 12 12 100% 75.69 0.0
09 06:35 E 6 16.09 Overcast SCT003 SCT060 OVC100 12 12 100% 75.69 0.0
09 06:15 Calm 16.09 Light Drizzle SCT060 BKN080 OVC110 12 12 100% 75.69 0.0
09 05:55 Calm 16.09 Light Rain SCT060 BKN070 OVC090 12 12 100% 75.69 0.0
09 05:35 E 6 16.09 Light Rain SCT060 BKN070 OVC090 12 12 100% 75.72 0.0
09 05:15 NE 6 16.09 Light Rain BKN060 BKN070 OVC100 12 12 100% 75.72 0.0
09 04:55 E 6 16.09 Light Rain BKN060 BKN070 OVC090 12 12 100% 75.74 0.0 0.03
09 04:35 Calm 16.09 Light Rain BKN065 BKN070 OVC110 12 12 100% 75.74 0.0
09 04:15 Calm 16.09 Overcast SCT065 BKN090 OVC110 12 12 100% 75.74 0.0
09 03:55 NE 6 16.09 Rain BKN065 OVC090 12 12 100% 75.77 0.0
09 03:35 NE 7 16.09 Light Drizzle SCT065 OVC075 12 12 100% 75.77 0.0
09 03:15 Calm 16.09 Light Rain OVC065 12 12 100% 75.79 0.0
09 02:55 NE 7 16.09 Light Rain SCT065 OVC090 13 13 100% 75.77 0.0
09 02:35 Calm 16.09 Overcast SCT070 OVC090 13 13 100% 75.79 0.0
09 02:15 N 6 16.09 Overcast SCT070 OVC090 13 13 100% 75.79 0.0
09 01:55 NE 7 16.09 Overcast SCT060 BKN070 OVC090 13 13 100% 75.82 0.0
09 01:35 NE 7 16.09 Overcast OVC100 13 13 100% 75.82 0.0
09 01:15 N 7 16.09 Overcast OVC110 13 13 100% 75.82 0.0
09 00:55 NE 7 16.09 Overcast OVC110 13 13 100% 75.79 0.0
09 00:35 N 6 16.09 Overcast OVC110 13 12 94% 75.79 0.0
09 00:15 N 6 16.09 Mostly Cloudy BKN110 13 12 94% 75.79 0.0
08 23:55 NE 7 16.09 Partly Cloudy SCT120 13 12 94% 75.79 0.0
08 23:35 NE 7 16.09 Mostly Cloudy BKN100 BKN120 14 12 88% 75.82 0.0
08 23:15 NE 9 16.09 Overcast SCT070 SCT090 OVC110 14 12 88% 75.82 0.0
08 22:55 N 11 16.09 Overcast SCT060 BKN070 OVC090 15 11 77% 75.84 0.0
08 22:35 NW 11 16.09 Overcast SCT060 BKN090 OVC110 16 10 68% 75.84 0.0
08 22:15 S 6 16.09 Overcast OVC100 17 8 56% 75.82 0.0
08 21:55 S 7 16.09 Overcast BKN090 OVC110 17 8 56% 75.82 0.0
08 21:35 S 7 16.09 Overcast OVC100 17 8 56% 75.82 0.0
08 21:15 S 9 16.09 Overcast OVC110 17 8 56% 75.79 0.0
08 20:55 S 6 16.09 Mostly Cloudy BKN120 17 8 56% 75.79 0.0
08 20:35 S 7 16.09 Partly Cloudy SCT090 18 7 49% 75.79 0.0
08 20:15 SW 9 16.09 Overcast OVC090 18 7 49% 75.79 0.0
08 19:55 SW 13 16.09 Mostly Cloudy BKN090 19 7 46% 75.79 0.0
08 19:35 SW 11 16.09 Overcast OVC090 19 7 46% 75.79 0.0
08 18:55 SW 17 16.09 Overcast BKN100 OVC120 20 6 40% 75.79 0.0
08 18:35 SW 15 16.09 Mostly Cloudy SCT100 BKN120 20 6 40% 75.82 0.0
08 18:15 SW 17 16.09 Mostly Cloudy BKN110 20 6 40% 75.79 0.0
08 17:55 SW 20 G 30 16.09 Overcast OVC110 20 6 40% 75.79 0.0
08 17:35 SW 17 16.09 Mostly Cloudy SCT095 BKN110 20 6 40% 75.79 0.0
08 17:15 SW 17 G 30 16.09 Partly Cloudy SCT120 21 6 38% 75.79 0.0
08 16:55 W 20 G 33 16.09 Fair CLR 21 5 35% 75.82 0.0
08 16:35 SW 19 16.09 Fair CLR 22 6 36% 75.84 0.0
08 16:15 S 24 G 30 16.09 Fair CLR 22 6 36% 75.87 0.0
08 15:55 SW 19 G 30 16.09 Fair CLR 22 6 36% 75.9 0.0
08 15:35 SW 19 G 30 16.09 Mostly Cloudy BKN095 22 6 36% 75.92 0.0
08 15:15 SW 22 G 39 16.09 Mostly Cloudy BKN095 21 6 38% 75.95 0.0
08 14:55 S 24 16.09 Partly Cloudy SCT095 21 6 38% 75.95 0.0
08 14:35 SW 19 G 28 16.09 Fair CLR 21 6 38% 75.95 0.0
08 14:15 S 19 G 33 16.09 Fair CLR 21 6 38% 75.95 0.0
08 13:55 SW 19 G 30 16.09 Partly Cloudy SCT110 21 6 38% 76 0.0
08 13:35 SW 19 16.09 Mostly Cloudy BKN110 20 6 40% 76.02 0.0
08 13:15 SW 22 G 31 16.09 Partly Cloudy SCT110 20 7 43% 76.05 0.0
08 12:55 SW 19 16.09 Partly Cloudy SCT110 20 7 43% 76.07 0.0
08 12:35 SW 20 G 33 16.09 Partly Cloudy SCT110 19 6 43% 76.12 0.0
08 12:15 SW 22 G 28 16.09 Partly Cloudy SCT110 19 7 46% 76.15 0.0
08 11:55 S 17 G 26 16.09 Partly Cloudy SCT110 18 7 49% 76.15 0.0
08 11:35 SW 17 16.09 Mostly Cloudy BKN110 18 7 49% 76.2 0.0
08 11:15 S 19 G 28 16.09 Fair CLR 17 7 52% 76.2 0.0
08 10:55 SW 17 16.09 Fair CLR 17 7 52% 76.23 0.0
08 10:35 SW 17 G 26 16.09 Fair CLR 16 6 52% 76.25 0.0
08 10:15 SW 19 16.09 Fair CLR 16 6 52% 76.25 0.0
08 09:55 SW 17 16.09 Fair CLR 15 6 55% 76.25 0.0
08 09:35 SW 13 16.09 Fair CLR 14 5 55% 76.25 0.0
08 09:15 SW 15 16.09 Fair CLR 13 5 59% 76.25 0.0
08 08:55 SW 11 16.09 Fair CLR 12 5 63% 76.25 0.0
08 08:35 S 7 16.09 Fair CLR 11 5 67% 76.25 0.0
08 08:15 S 7 16.09 Fair CLR 10 5 71% 9 76.25 0.0
08 07:55 Calm 16.09 Fair CLR 8 6 87% 76.23 0.0
08 07:35 Calm 16.09 Fair CLR 7 6 93% 76.23 0.0
08 07:15 S 6 16.09 Fair CLR 6 6 100% 76.2 0.0
08 06:55 Calm 16.09 Fair CLR 6 6 100% 76.2 0.0
08 06:35 Calm 16.09 Fair CLR 6 5 93% 76.2 0.0
08 06:15 Calm 16.09 Fair CLR 6 5 93% 76.17 0.0
08 05:55 Calm 16.09 Fair CLR 6 4 87% 76.17 0.0
08 05:35 Calm 16.09 Fair CLR 6 5 93% 76.2 0.0
08 05:15 Calm 16.09 Partly Cloudy SCT120 6 5 93% 76.17 0.0
08 04:55 Calm 16.09 Partly Cloudy SCT120 5 5 100% 76.17 0.0
08 04:35 Calm 16.09 Fair CLR 6 6 100% 76.17 0.0
08 04:15 Calm 16.09 Fair CLR 6 5 93% 76.17 0.0
08 03:55 Calm 16.09 Fair CLR 6 5 93% 76.17 0.0
08 03:35 S 7 16.09 Fair CLR 6 6 100% 5 76.17 0.0
08 03:15 S 6 16.09 Fair CLR 6 6 100% 76.2 0.0
08 02:55 Calm 16.09 Fair CLR 6 6 100% 76.2 0.0
08 02:35 Calm 16.09 Fair CLR 6 6 100% 76.2 0.0
08 02:15 Calm 16.09 Fair CLR 6 6 100% 76.23 0.0
08 01:55 Calm 16.09 Fair CLR 6 6 100% 76.23 0.0
08 01:35 Calm 16.09 Fair CLR 6 6 100% 76.25 0.0
08 01:15 Calm 16.09 Fair CLR 6 6 100% 76.25 0.0
08 00:55 Calm 16.09 Fair CLR 7 7 100% 76.25 0.0
08 00:35 Calm 16.09 Fair CLR 7 7 100% 76.23 0.0
08 00:15 Calm 16.09 Fair CLR 7 7 100% 76.25 0.0
07 23:55 Calm 16.09 Fair CLR 7 7 100% 76.25 0.0
07 23:35 Calm 16.09 Fair CLR 7 7 100% 76.25 0.0
07 23:15 Calm 16.09 Fair CLR 8 7 93% 76.25 0.0
07 22:55 Calm 16.09 Fair CLR 8 8 100% 76.25 0.0
07 22:35 Calm 16.09 Fair CLR 8 7 93% 76.23 0.0
07 22:15 Calm 16.09 Fair CLR 8 7 93% 76.23 0.0
07 21:55 Calm 16.09 Fair CLR 8 7 93% 76.2 0.0
07 21:35 Calm 16.09 Fair CLR 10 7 82% 76.2 0.0
07 21:15 Calm 16.09 Fair CLR 10 7 82% 76.2 0.0
07 20:55 Calm 16.09 Fair CLR 11 6 72% 76.17 0.0
07 20:35 Calm 16.09 Fair CLR 12 7 72% 76.17 0.0
07 20:15 Calm 16.09 Fair CLR 14 7 63% 76.15 0.0
07 19:55 Calm 16.09 Fair CLR 15 0 36% 76.15 0.0
07 19:35 W 7 16.09 Fair CLR 15 1 39% 76.15 0.0
07 19:15 W 6 16.09 Fair CLR 16 0 34% 76.15 0.0
07 18:55 W 7 16.09 Fair CLR 16 0 34% 76.15 0.0
07 18:35 Calm 16.09 Fair CLR 16 0 34% 76.17 0.0
07 18:15 SW 6 16.09 Fair CLR 16 0 34% 76.17 0.0
07 17:55 W 9 16.09 Fair CLR 16 0 34% 76.15 0.0
07 17:35 NW 7 16.09 Fair CLR 16 0 34% 76.15 0.0
07 17:15 NW 7 16.09 Fair CLR 16 0 34% 76.17 0.0
07 16:55 N 9 16.09 Fair CLR 16 0 34% 76.17 0.0
07 16:35 NW 13 16.09 Fair CLR 16 0 34% 76.17 0.0
07 16:15 NW 15 16.09 Fair CLR 16 0 34% 76.17 0.0
07 15:55 W 13 16.09 Fair CLR 16 0 34% 76.17 0.0
07 15:35 N 11 16.09 Partly Cloudy SCT070 16 1 36% 76.2 0.0
07 15:15 NW 7 16.09 Fair CLR 15 1 39% 76.2 0.0
07 14:55 NW 11 16.09 Fair CLR 15 1 39% 76.2 0.0
07 14:35 NW 7 G 26 16.09 Fair CLR 15 0 36% 76.2 0.0
07 14:15 N 11 16.09 Fair CLR 15 0 36% 76.2 0.0
07 13:55 W 13 16.09 Fair CLR 14 1 41% 76.23 0.0
07 13:35 NW 6 16.09 Fair CLR 14 0 39% 76.25 0.0
07 13:15 NW 9 16.09 Fair CLR 13 0 41% 76.28 0.0
07 12:55 N 13 16.09 Fair CLR 13 0 41% 76.28 0.0
Date Time (edt) Wind (kph) Vis. (km) Weather Sky Cond. Air Dwpt Max. Min. Relative Humidity Wind Chill (°C) Heat Index (°C) altimeter (cm) sea level (mb) 1 hr 3 hr 6 hr
6 hour
Temperature (ºC) Pressure Precipitation (cm)